createdAt,value
2023-05-14T00:01:28.608Z,9.53
2023-05-14T00:03:57.199Z,9.47
2023-05-14T00:06:25.849Z,10.10
2023-05-14T00:08:54.269Z,10.40
2023-05-14T00:11:22.758Z,10.93
2023-05-14T00:13:52.512Z,10.73
2023-05-14T00:16:21.021Z,11.90
2023-05-14T00:18:49.715Z,12.70
2023-05-14T00:21:18.183Z,12.30
2023-05-14T00:23:46.621Z,14.47
2023-05-14T00:26:15.025Z,15.80
2023-05-14T00:28:45.915Z,14.23
2023-05-14T00:31:15.647Z,15.27
2023-05-14T00:33:43.988Z,14.07
2023-05-14T00:36:12.447Z,13.70
2023-05-14T00:38:40.796Z,12.73
2023-05-14T00:41:09.605Z,12.57
2023-05-14T00:43:38.009Z,12.27
2023-05-14T00:46:07.205Z,12.83
2023-05-14T00:48:38.823Z,12.47
2023-05-14T00:51:07.776Z,12.77
2023-05-14T00:53:37.184Z,12.67
2023-05-14T00:56:07.029Z,12.50
2023-05-14T00:58:35.538Z,12.67
2023-05-14T01:01:04.296Z,12.10
2023-05-14T01:03:33.688Z,12.30
2023-05-14T01:06:15.376Z,11.93
2023-05-14T01:08:52.152Z,12.50
2023-05-14T01:11:27.518Z,12.37
2023-05-14T01:14:06.983Z,13.40
2023-05-14T01:16:37.435Z,15.00
2023-05-14T01:19:08.099Z,14.27
2023-05-14T01:21:41.164Z,13.43
2023-05-14T01:24:09.995Z,13.93
2023-05-14T01:26:38.688Z,14.93
2023-05-14T01:29:17.082Z,14.70
2023-05-14T01:31:48.164Z,14.77
2023-05-14T01:34:17.938Z,14.20
2023-05-14T01:36:49.544Z,14.47
2023-05-14T01:39:19.012Z,15.27
2023-05-14T01:41:48.408Z,14.67
2023-05-14T01:44:17.173Z,14.83
2023-05-14T01:46:45.562Z,14.07
2023-05-14T01:49:14.506Z,15.03
2023-05-14T01:51:42.963Z,15.17
2023-05-14T01:54:12.909Z,14.97
2023-05-14T01:56:41.633Z,16.23
2023-05-14T01:59:10.192Z,15.83
2023-05-14T02:01:38.831Z,16.60
2023-05-14T02:04:07.397Z,17.10
2023-05-14T02:06:35.893Z,17.27
2023-05-14T02:09:05.493Z,16.13
2023-05-14T02:11:35.381Z,14.87
2023-05-14T02:14:04.130Z,14.30
2023-05-14T02:16:32.690Z,15.27
2023-05-14T02:19:01.242Z,16.17
2023-05-14T02:21:29.826Z,16.63
2023-05-14T02:23:58.283Z,17.03
2023-05-14T02:26:26.896Z,16.60
2023-05-14T02:28:57.963Z,17.97
2023-05-14T02:31:27.901Z,17.73
2023-05-14T02:33:56.343Z,16.17
2023-05-14T02:36:24.727Z,17.77
2023-05-14T02:38:53.216Z,16.77
2023-05-14T02:41:23.544Z,17.37
2023-05-14T02:43:53.919Z,15.40
2023-05-14T02:46:24.719Z,16.33
2023-05-14T02:48:53.247Z,16.97
2023-05-14T02:51:22.188Z,16.57
2023-05-14T02:53:51.022Z,17.10
2023-05-14T02:56:19.509Z,17.47
2023-05-14T02:58:48.074Z,17.60
2023-05-14T03:01:18.823Z,17.03
2023-05-14T03:03:49.850Z,17.07
2023-05-14T03:06:18.913Z,16.70
2023-05-14T03:08:47.346Z,16.83
2023-05-14T03:11:15.832Z,16.07
2023-05-14T03:13:44.165Z,15.67
2023-05-14T03:16:12.627Z,15.33
2023-05-14T03:18:41.188Z,16.03
2023-05-14T03:21:12.179Z,16.20
2023-05-14T03:23:40.624Z,15.43
2023-05-14T03:26:09.160Z,15.67
2023-05-14T03:28:37.630Z,14.40
2023-05-14T03:31:06.388Z,13.83
2023-05-14T03:33:34.875Z,13.53
2023-05-14T03:36:03.180Z,12.67
2023-05-14T03:38:32.971Z,12.27
2023-05-14T03:41:01.534Z,11.87
2023-05-14T03:43:29.864Z,12.50
2023-05-14T03:45:58.403Z,12.33
2023-05-14T03:48:26.965Z,12.10
2023-05-14T03:50:55.823Z,13.07
2023-05-14T03:53:24.370Z,12.60
2023-05-14T03:55:55.154Z,13.03
2023-05-14T03:58:24.146Z,12.67
2023-05-14T04:00:52.705Z,12.10
2023-05-14T04:03:21.828Z,12.37
2023-05-14T04:05:52.518Z,12.23
2023-05-14T04:08:21.416Z,12.07
2023-05-14T04:10:51.602Z,11.40
2023-05-14T04:13:21.482Z,11.93
2023-05-14T04:15:49.942Z,11.80
2023-05-14T04:18:18.445Z,12.80
2023-05-14T04:20:47.480Z,12.77
2023-05-14T04:23:16.132Z,12.37
2023-05-14T04:25:45.042Z,14.10
2023-05-14T04:28:13.474Z,12.33
2023-05-14T04:30:43.325Z,12.70
2023-05-14T04:33:11.857Z,12.33
2023-05-14T04:35:40.220Z,13.53
2023-05-14T04:38:09.345Z,13.43
2023-05-14T04:40:37.885Z,13.17
2023-05-14T04:43:06.409Z,13.20
2023-05-14T04:45:34.927Z,13.47
2023-05-14T04:48:05.064Z,13.57
2023-05-14T04:50:33.507Z,14.90
2023-05-14T04:53:03.312Z,13.97
2023-05-14T04:55:31.818Z,13.10
2023-05-14T04:58:00.575Z,12.93
2023-05-14T05:00:29.172Z,12.97
2023-05-14T05:02:57.797Z,13.13
2023-05-14T05:05:27.568Z,12.97
2023-05-14T05:07:56.351Z,13.50
2023-05-14T05:10:25.339Z,13.50
2023-05-14T05:12:54.364Z,13.37
2023-05-14T05:15:23.692Z,13.40
2023-05-14T05:17:53.743Z,13.70
2023-05-14T05:20:22.547Z,12.77
2023-05-14T05:22:52.575Z,12.80
2023-05-14T05:25:21.183Z,12.63
2023-05-14T05:27:49.489Z,13.20
2023-05-14T05:30:18.243Z,13.03
2023-05-14T05:32:46.792Z,12.90
2023-05-14T05:35:15.347Z,12.73
2023-05-14T05:37:45.366Z,13.17
2023-05-14T05:40:16.040Z,12.13
2023-05-14T05:42:44.964Z,12.37
2023-05-14T05:45:13.315Z,12.17
2023-05-14T05:47:41.808Z,12.30
2023-05-14T05:50:12.561Z,11.60
2023-05-14T05:52:41.894Z,12.17
2023-05-14T05:55:11.020Z,11.87
2023-05-14T05:57:40.736Z,12.27
2023-05-14T06:00:14.246Z,12.10
2023-05-14T06:02:43.254Z,13.13
2023-05-14T06:05:12.351Z,12.07
2023-05-14T06:07:41.009Z,11.57
2023-05-14T06:10:10.341Z,12.43
2023-05-14T06:12:40.640Z,11.80
2023-05-14T06:15:10.551Z,13.50
2023-05-14T06:17:39.711Z,11.67
2023-05-14T06:20:10.085Z,11.73
2023-05-14T06:22:38.886Z,11.47
2023-05-14T06:25:08.354Z,10.77
2023-05-14T06:27:38.122Z,10.27
2023-05-14T06:30:10.643Z,9.80
2023-05-14T06:32:39.281Z,9.50
2023-05-14T06:35:09.273Z,9.10
2023-05-14T06:37:37.669Z,8.93
2023-05-14T06:40:07.638Z,8.50
2023-05-14T06:42:36.209Z,8.97
2023-05-14T06:45:08.937Z,9.20
2023-05-14T06:47:38.754Z,8.60
2023-05-14T06:50:10.127Z,8.23
2023-05-14T06:52:40.606Z,8.23
2023-05-14T06:55:09.790Z,8.40
2023-05-14T06:57:40.478Z,8.67
2023-05-14T07:00:15.792Z,9.20
2023-05-14T07:02:44.462Z,8.53
2023-05-14T07:05:13.022Z,7.90
2023-05-14T07:07:41.876Z,8.40
2023-05-14T07:10:10.492Z,8.60
2023-05-14T07:12:39.102Z,8.30
2023-05-14T07:15:10.806Z,8.13
2023-05-14T07:17:39.576Z,8.10
2023-05-14T07:20:09.873Z,7.83
2023-05-14T07:22:39.805Z,9.03
2023-05-14T07:25:08.902Z,8.33
2023-05-14T07:27:37.337Z,9.03
2023-05-14T07:30:07.361Z,8.13
2023-05-14T07:32:37.356Z,8.33
2023-05-14T07:35:06.938Z,8.37
2023-05-14T07:37:35.848Z,8.03
2023-05-14T07:40:04.439Z,8.90
2023-05-14T07:42:43.996Z,8.45
2023-05-14T07:45:13.024Z,8.03
2023-05-14T07:47:43.137Z,8.10
2023-05-14T07:50:13.463Z,8.23
2023-05-14T07:52:41.892Z,9.20
2023-05-14T07:55:11.744Z,8.97
2023-05-14T07:57:41.030Z,8.60
2023-05-14T08:00:11.631Z,8.63
2023-05-14T08:02:46.299Z,8.27
2023-05-14T08:05:15.551Z,7.90
2023-05-14T08:07:44.182Z,7.50
2023-05-14T08:10:12.873Z,7.20
2023-05-14T08:12:42.861Z,7.23
2023-05-14T08:15:12.150Z,6.87
2023-05-14T08:17:40.730Z,7.40
2023-05-14T08:20:12.211Z,8.17
2023-05-14T08:22:41.144Z,7.50
2023-05-14T08:25:10.558Z,7.70
2023-05-14T08:27:38.950Z,7.23
2023-05-14T08:30:08.765Z,6.63
2023-05-14T08:32:38.733Z,6.20
2023-05-14T08:35:12.226Z,6.27
2023-05-14T08:37:41.612Z,6.93
2023-05-14T08:40:11.341Z,7.03
2023-05-14T08:42:41.773Z,6.90
2023-05-14T08:45:18.007Z,6.72
2023-05-14T08:47:50.592Z,6.43
2023-05-14T08:50:23.032Z,5.70
2023-05-14T08:52:53.191Z,5.57
2023-05-14T08:55:22.504Z,5.97
2023-05-14T08:57:51.105Z,5.80
2023-05-14T09:00:21.728Z,5.90
2023-05-14T09:02:51.051Z,5.95
2023-05-14T09:05:23.640Z,5.55
2023-05-14T09:07:52.217Z,5.37
2023-05-14T09:10:21.315Z,5.43
2023-05-14T09:12:50.110Z,5.40
2023-05-14T09:15:19.007Z,5.20
2023-05-14T09:17:50.613Z,5.65
2023-05-14T09:20:20.003Z,5.47
2023-05-14T09:22:54.372Z,4.60
2023-05-14T09:25:28.254Z,4.20
2023-05-14T09:27:58.779Z,4.25
2023-05-14T09:30:27.821Z,4.00
2023-05-14T09:32:56.707Z,4.25
2023-05-14T09:35:26.413Z,3.88
2023-05-14T09:37:56.905Z,3.63
2023-05-14T09:40:26.604Z,3.65
2023-05-14T09:42:56.314Z,3.40
2023-05-14T09:45:26.258Z,3.55
2023-05-14T09:47:54.759Z,3.60
2023-05-14T09:50:23.771Z,4.10
2023-05-14T09:52:52.576Z,3.92
2023-05-14T09:55:23.221Z,4.03
2023-05-14T09:57:51.633Z,3.55
2023-05-14T10:00:20.833Z,3.50
2023-05-14T10:02:53.546Z,3.40
2023-05-14T10:05:23.631Z,3.90
2023-05-14T10:07:54.434Z,3.50
2023-05-14T10:10:28.186Z,3.90
2023-05-14T10:13:00.864Z,4.57
2023-05-14T10:15:35.084Z,4.25
2023-05-14T10:18:11.342Z,3.65
2023-05-14T10:20:41.387Z,4.13
2023-05-14T10:23:10.276Z,3.50
2023-05-14T10:25:41.269Z,3.67
2023-05-14T10:28:11.819Z,3.80
2023-05-14T10:30:46.120Z,3.67
2023-05-14T10:33:16.954Z,3.75
2023-05-14T10:36:00.965Z,3.80
2023-05-14T10:38:30.464Z,3.65
2023-05-14T10:41:03.657Z,3.25
2023-05-14T10:43:37.007Z,3.55
2023-05-14T10:46:06.086Z,3.40
2023-05-14T10:48:35.155Z,3.28
2023-05-14T10:51:04.404Z,3.40
2023-05-14T10:53:35.375Z,3.00
2023-05-14T10:56:10.731Z,3.20
2023-05-14T10:58:40.389Z,2.95
2023-05-14T11:01:09.860Z,2.92
2023-05-14T11:03:43.349Z,2.92
2023-05-14T11:06:13.522Z,2.80
2023-05-14T11:08:42.952Z,2.78
2023-05-14T11:11:13.049Z,2.65
2023-05-14T11:13:42.746Z,2.67
2023-05-14T11:16:22.956Z,2.28
2023-05-14T11:19:01.961Z,2.10
2023-05-14T11:21:31.980Z,2.40
2023-05-14T11:24:01.496Z,2.65
2023-05-14T11:26:33.056Z,2.50
2023-05-14T11:29:01.686Z,2.40
2023-05-14T11:31:30.188Z,3.08
2023-05-14T11:33:58.743Z,2.97
2023-05-14T11:36:27.259Z,3.33
2023-05-14T11:38:55.770Z,3.30
2023-05-14T11:41:24.665Z,3.20
2023-05-14T11:43:54.640Z,2.85
2023-05-14T11:46:23.861Z,2.78
2023-05-14T11:48:52.291Z,2.70
2023-05-14T11:51:20.786Z,2.60
2023-05-14T11:53:49.292Z,2.42
2023-05-14T11:56:17.899Z,2.60
2023-05-14T11:58:49.864Z,2.60
2023-05-14T12:01:19.946Z,2.67
2023-05-14T12:03:48.581Z,2.70
2023-05-14T12:06:17.098Z,2.50
2023-05-14T12:08:46.520Z,2.70
2023-05-14T12:11:17.004Z,2.50
2023-05-14T12:13:52.240Z,2.50
2023-05-14T12:16:22.446Z,2.50
2023-05-14T12:18:50.858Z,2.60
2023-05-14T12:21:19.653Z,2.50
2023-05-14T12:23:48.193Z,2.72
2023-05-14T12:26:16.794Z,2.83
2023-05-14T12:28:49.119Z,2.72
2023-05-14T12:31:17.653Z,2.60
2023-05-14T12:33:47.486Z,2.50
2023-05-14T12:36:21.966Z,2.60
2023-05-14T12:38:51.941Z,2.50
2023-05-14T12:41:21.347Z,2.20
2023-05-14T12:43:50.616Z,2.40
2023-05-14T12:46:19.321Z,2.60
2023-05-14T12:48:50.528Z,2.63
2023-05-14T12:51:20.557Z,2.33
2023-05-14T12:53:49.384Z,2.20
2023-05-14T12:56:17.973Z,2.40
2023-05-14T12:58:47.403Z,2.03
2023-05-14T13:01:15.954Z,2.00
2023-05-14T13:03:44.489Z,2.20
2023-05-14T13:06:14.303Z,2.15
2023-05-14T13:08:42.912Z,2.22
2023-05-14T13:11:11.336Z,1.92
2023-05-14T13:13:39.873Z,2.05
2023-05-14T13:16:08.891Z,1.77
2023-05-14T13:18:37.440Z,2.17
2023-05-14T13:21:06.510Z,2.03
2023-05-14T13:23:36.278Z,2.13
2023-05-14T13:26:04.975Z,1.95
2023-05-14T13:28:33.495Z,1.88
2023-05-14T13:31:07.895Z,2.20
2023-05-14T13:33:37.933Z,2.10
2023-05-14T13:36:06.973Z,2.13
2023-05-14T13:38:37.001Z,2.10
2023-05-14T13:41:05.878Z,2.03
2023-05-14T13:43:35.384Z,2.08
2023-05-14T13:46:05.046Z,2.05
2023-05-14T13:48:34.133Z,2.00
2023-05-14T13:51:02.509Z,1.85
2023-05-14T13:53:31.027Z,1.70
2023-05-14T13:56:01.790Z,2.00
2023-05-14T13:58:30.484Z,2.00
2023-05-14T14:00:59.018Z,2.30
2023-05-14T14:03:27.462Z,2.30
2023-05-14T14:05:55.873Z,2.30
2023-05-14T14:08:24.809Z,2.40
2023-05-14T14:10:55.419Z,2.13
2023-05-14T14:13:25.471Z,2.20
2023-05-14T14:15:54.251Z,2.40
2023-05-14T14:18:22.811Z,2.20
2023-05-14T14:20:51.361Z,2.20
2023-05-14T14:23:20.766Z,2.40
2023-05-14T14:25:49.208Z,2.20
2023-05-14T14:28:17.615Z,2.33
2023-05-14T14:30:47.412Z,2.70
2023-05-14T14:33:16.069Z,2.53
2023-05-14T14:35:44.489Z,2.33
2023-05-14T14:38:13.118Z,2.50
2023-05-14T14:40:41.568Z,2.42
2023-05-14T14:43:10.026Z,2.15
2023-05-14T14:45:38.669Z,2.00
2023-05-14T14:48:27.183Z,2.05
2023-05-14T14:50:56.141Z,2.20
2023-05-14T14:53:25.227Z,2.30
2023-05-14T14:55:53.658Z,2.42
2023-05-14T14:58:22.401Z,2.38
2023-05-14T15:00:53.703Z,2.45
2023-05-14T15:03:22.996Z,2.28
2023-05-14T15:05:53.594Z,2.17
2023-05-14T15:08:28.169Z,2.00
2023-05-14T15:10:57.458Z,2.10
2023-05-14T15:13:27.188Z,2.00
2023-05-14T15:15:55.760Z,2.13
2023-05-14T15:18:24.299Z,1.88
2023-05-14T15:20:54.222Z,2.10
2023-05-14T15:23:22.671Z,2.33
2023-05-14T15:25:51.001Z,2.13
2023-05-14T15:28:19.499Z,2.30
2023-05-14T15:30:49.261Z,2.30
2023-05-14T15:33:19.433Z,2.05
2023-05-14T15:35:48.185Z,2.33
2023-05-14T15:38:18.799Z,2.15
2023-05-14T15:40:47.374Z,2.45
2023-05-14T15:43:16.228Z,2.22
2023-05-14T15:45:46.110Z,2.20
2023-05-14T15:48:14.621Z,2.30
2023-05-14T15:50:44.039Z,2.25
2023-05-14T15:53:12.667Z,2.40
2023-05-14T15:55:42.517Z,2.40
2023-05-14T15:58:11.030Z,2.20
2023-05-14T16:00:39.539Z,2.30
2023-05-14T16:03:08.140Z,2.30
2023-05-14T16:05:37.286Z,2.28
2023-05-14T16:08:06.312Z,2.20
2023-05-14T16:10:34.798Z,2.33
2023-05-14T16:13:04.722Z,2.20
2023-05-14T16:15:33.208Z,2.38
2023-05-14T16:18:01.925Z,2.50
2023-05-14T16:20:32.588Z,2.38
2023-05-14T16:23:00.987Z,1.90
2023-05-14T16:25:31.322Z,2.17
2023-05-14T16:27:59.912Z,2.20
2023-05-14T16:30:29.658Z,2.13
2023-05-14T16:32:58.208Z,2.00
2023-05-14T16:35:26.778Z,2.20
2023-05-14T16:37:55.498Z,2.22
2023-05-14T16:40:24.391Z,1.95
2023-05-14T16:42:53.160Z,2.08
2023-05-14T16:45:21.993Z,2.20
2023-05-14T16:47:52.303Z,2.03
2023-05-14T16:50:21.102Z,2.03
2023-05-14T16:52:49.723Z,1.90
2023-05-14T16:55:19.517Z,2.03
2023-05-14T16:57:47.983Z,2.22
2023-05-14T17:00:18.031Z,2.20
2023-05-14T17:02:49.199Z,2.13
2023-05-14T17:05:19.391Z,2.35
2023-05-14T17:07:48.008Z,1.95
2023-05-14T17:10:16.563Z,2.00
2023-05-14T17:12:45.373Z,2.00
2023-05-14T17:15:13.978Z,2.10
2023-05-14T17:17:42.563Z,2.15
2023-05-14T17:20:13.264Z,2.30
2023-05-14T17:22:44.024Z,2.05
2023-05-14T17:25:12.595Z,2.30
2023-05-14T17:27:41.720Z,2.42
2023-05-14T17:30:11.263Z,2.30
2023-05-14T17:32:39.995Z,2.58
2023-05-14T17:35:09.706Z,2.40
2023-05-14T17:37:38.432Z,2.60
2023-05-14T17:40:10.165Z,2.60
2023-05-14T17:42:38.780Z,2.60
2023-05-14T17:45:08.715Z,2.60
2023-05-14T17:47:37.727Z,2.50
2023-05-14T17:50:07.209Z,2.70
2023-05-14T17:52:35.779Z,3.08
2023-05-14T17:55:04.673Z,2.97
2023-05-14T17:57:34.572Z,3.00
2023-05-14T18:00:04.859Z,3.63
2023-05-14T18:02:39.211Z,3.58
2023-05-14T18:05:08.295Z,3.10
2023-05-14T18:07:37.445Z,3.10
2023-05-14T18:10:06.978Z,3.15
2023-05-14T18:12:36.847Z,3.58
2023-05-14T18:15:06.106Z,3.50
2023-05-14T18:17:34.605Z,3.65
2023-05-14T18:20:03.605Z,3.60
2023-05-14T18:22:32.163Z,3.80
2023-05-14T18:25:00.719Z,4.00
2023-05-14T18:27:30.060Z,4.10
2023-05-14T18:30:00.027Z,3.90
2023-05-14T18:32:28.692Z,4.07
2023-05-14T18:34:57.442Z,4.13
2023-05-14T18:37:26.183Z,4.18
2023-05-14T18:39:54.923Z,4.40
2023-05-14T18:42:23.403Z,4.20
2023-05-14T18:44:52.047Z,4.65
2023-05-14T18:47:22.013Z,4.60
2023-05-14T18:49:54.869Z,4.25
2023-05-14T18:52:23.890Z,4.20
2023-05-14T18:54:52.598Z,4.10
2023-05-14T18:57:21.209Z,4.43
2023-05-14T18:59:49.790Z,4.53
2023-05-14T19:02:18.402Z,4.50
2023-05-14T19:04:52.380Z,4.37
2023-05-14T19:07:22.146Z,4.90
2023-05-14T19:09:50.737Z,4.70
2023-05-14T19:12:19.279Z,5.00
2023-05-14T19:14:48.043Z,4.50
2023-05-14T19:17:18.578Z,5.03
2023-05-14T19:19:50.430Z,4.80
2023-05-14T19:22:19.580Z,4.80
2023-05-14T19:27:21.902Z,5.00
2023-05-14T19:29:50.397Z,5.30
2023-05-14T19:32:19.042Z,5.13
2023-05-14T19:34:48.478Z,5.00
2023-05-14T19:37:19.552Z,5.20
2023-05-14T19:39:48.082Z,5.43
2023-05-14T19:42:16.648Z,6.80
2023-05-14T19:44:45.229Z,7.70
2023-05-14T19:47:13.961Z,8.17
2023-05-14T19:49:43.004Z,7.20
2023-05-14T19:52:12.298Z,7.00
2023-05-14T19:54:42.277Z,6.37
2023-05-14T19:57:11.215Z,6.13
2023-05-14T19:59:40.409Z,6.30
2023-05-14T20:02:09.262Z,5.37
2023-05-14T20:04:40.299Z,5.90
2023-05-14T20:07:10.158Z,5.70
2023-05-14T20:09:38.925Z,5.90
2023-05-14T20:12:09.905Z,5.63
2023-05-14T20:14:39.384Z,6.63
2023-05-14T20:17:08.148Z,6.77
2023-05-14T20:19:36.749Z,6.57
2023-05-14T20:22:05.536Z,6.40
2023-05-14T20:24:34.047Z,6.67
2023-05-14T20:27:02.540Z,6.10
2023-05-14T20:29:32.531Z,6.30
2023-05-14T20:32:01.016Z,6.33
2023-05-14T20:34:29.708Z,6.40
2023-05-14T20:36:58.661Z,6.10
2023-05-14T20:39:27.400Z,6.00
2023-05-14T20:41:55.916Z,6.13
2023-05-14T20:44:24.222Z,6.03
2023-05-14T20:46:54.606Z,6.40
2023-05-14T20:49:23.920Z,6.40
2023-05-14T20:51:52.496Z,6.43
2023-05-14T20:54:20.968Z,6.50
2023-05-14T20:56:49.328Z,6.47
2023-05-14T20:59:19.163Z,6.20
2023-05-14T21:01:47.684Z,6.53
2023-05-14T21:04:17.591Z,6.13
2023-05-14T21:06:46.159Z,7.03
2023-05-14T21:09:14.756Z,6.17
2023-05-14T21:11:43.177Z,6.60
2023-05-14T21:14:11.549Z,6.83
2023-05-14T21:16:40.122Z,6.73
2023-05-14T21:19:08.766Z,6.80
2023-05-14T21:21:38.679Z,6.80
2023-05-14T21:24:08.008Z,6.83
2023-05-14T21:26:37.430Z,7.40
2023-05-14T21:29:05.776Z,6.80
2023-05-14T21:31:34.489Z,6.87
2023-05-14T21:34:02.995Z,6.60
2023-05-14T21:36:32.084Z,6.60
2023-05-14T21:39:01.951Z,6.23
2023-05-14T21:41:31.527Z,6.50
2023-05-14T21:44:00.228Z,7.03
2023-05-14T21:46:29.138Z,6.47
2023-05-14T21:48:58.066Z,7.10
2023-05-14T21:51:26.793Z,7.10
2023-05-14T21:53:55.188Z,6.90
2023-05-14T21:56:25.224Z,7.67
2023-05-14T21:58:55.590Z,8.03
2023-05-14T22:01:24.636Z,8.23
2023-05-14T22:03:53.644Z,7.67
2023-05-14T22:06:23.122Z,7.80
2023-05-14T22:08:51.570Z,8.37
2023-05-14T22:11:20.221Z,7.80
2023-05-14T22:13:50.336Z,8.30
2023-05-14T22:16:18.981Z,7.50
2023-05-14T22:18:48.145Z,7.33
2023-05-14T22:21:18.164Z,7.10
2023-05-14T22:23:46.600Z,7.63
2023-05-14T22:26:16.036Z,7.60
2023-05-14T22:28:44.695Z,7.30
2023-05-14T22:31:14.573Z,7.30
2023-05-14T22:33:42.921Z,7.00
2023-05-14T22:36:11.686Z,6.77
2023-05-14T22:38:41.295Z,7.23
2023-05-14T22:41:09.608Z,7.40
2023-05-14T22:43:38.233Z,7.57
2023-05-14T22:46:06.828Z,7.80
2023-05-14T22:48:37.135Z,7.80
2023-05-14T22:51:05.724Z,8.10
2023-05-14T22:53:36.155Z,7.73
2023-05-14T22:56:04.799Z,7.60
2023-05-14T22:58:33.226Z,7.73
2023-05-14T23:01:01.907Z,7.30
2023-05-14T23:03:30.817Z,7.53
2023-05-14T23:06:00.575Z,7.57
2023-05-14T23:08:29.017Z,7.40
2023-05-14T23:10:58.441Z,7.10
2023-05-14T23:13:27.177Z,7.50
2023-05-14T23:15:55.539Z,6.57
2023-05-14T23:18:24.236Z,6.80
2023-05-14T23:20:52.787Z,7.03
2023-05-14T23:23:22.702Z,6.50
2023-05-14T23:25:51.548Z,6.73
2023-05-14T23:28:20.732Z,6.40
2023-05-14T23:30:49.171Z,6.60
2023-05-14T23:33:17.711Z,6.83
2023-05-14T23:35:46.233Z,6.40
2023-05-14T23:38:15.023Z,7.00
2023-05-14T23:40:44.768Z,7.20
2023-05-14T23:43:13.116Z,6.70
2023-05-14T23:45:41.708Z,7.10
2023-05-14T23:48:10.257Z,7.10
2023-05-14T23:50:39.208Z,6.73
2023-05-14T23:53:07.919Z,7.37
2023-05-14T23:55:36.370Z,6.93
2023-05-14T23:58:06.320Z,7.17
